sensor_id;sensor_type;location;lat;lon;timestamp;temperature;humidity
15103;DHT22;7652;53.584;9.998;2023-04-03T00:00:23;2.70;99.90
15103;DHT22;7652;53.584;9.998;2023-04-03T00:03:27;2.70;99.90
15103;DHT22;7652;53.584;9.998;2023-04-03T00:06:30;2.70;99.90
15103;DHT22;7652;53.584;9.998;2023-04-03T00:09:34;2.60;99.90
15103;DHT22;7652;53.584;9.998;2023-04-03T00:12:37;2.60;99.90
15103;DHT22;7652;53.584;9.998;2023-04-03T00:15:40;2.60;99.90
15103;DHT22;7652;53.584;9.998;2023-04-03T00:18:44;2.50;99.90
15103;DHT22;7652;53.584;9.998;2023-04-03T00:21:47;2.50;99.90
15103;DHT22;7652;53.584;9.998;2023-04-03T00:24:50;2.50;99.90
15103;DHT22;7652;53.584;9.998;2023-04-03T00:27:53;2.40;99.90
15103;DHT22;7652;53.584;9.998;2023-04-03T00:30:57;2.40;99.90
15103;DHT22;7652;53.584;9.998;2023-04-03T00:34:01;2.40;99.90
15103;DHT22;7652;53.584;9.998;2023-04-03T00:37:04;2.50;99.90
15103;DHT22;7652;53.584;9.998;2023-04-03T00:40:09;2.50;99.90
15103;DHT22;7652;53.584;9.998;2023-04-03T00:43:14;2.50;99.90
15103;DHT22;7652;53.584;9.998;2023-04-03T00:46:17;2.50;99.90
15103;DHT22;7652;53.584;9.998;2023-04-03T00:49:22;2.40;99.90
15103;DHT22;7652;53.584;9.998;2023-04-03T00:52:27;2.40;99.90
15103;DHT22;7652;53.584;9.998;2023-04-03T00:55:31;2.40;99.90
15103;DHT22;7652;53.584;9.998;2023-04-03T00:58:38;2.40;99.90
15103;DHT22;7652;53.584;9.998;2023-04-03T01:01:42;2.40;99.90
15103;DHT22;7652;53.584;9.998;2023-04-03T01:04:47;2.30;99.90
15103;DHT22;7652;53.584;9.998;2023-04-03T01:07:51;2.20;99.90
15103;DHT22;7652;53.584;9.998;2023-04-03T01:10:54;2.20;99.90
15103;DHT22;7652;53.584;9.998;2023-04-03T01:13:57;2.20;99.90
15103;DHT22;7652;53.584;9.998;2023-04-03T01:17:01;2.20;99.90
15103;DHT22;7652;53.584;9.998;2023-04-03T01:20:43;2.30;99.90
15103;DHT22;7652;53.584;9.998;2023-04-03T01:23:57;2.20;99.90
15103;DHT22;7652;53.584;9.998;2023-04-03T01:27:03;2.10;99.90
15103;DHT22;7652;53.584;9.998;2023-04-03T01:30:08;2.10;99.90
15103;DHT22;7652;53.584;9.998;2023-04-03T01:33:13;2.10;99.90
15103;DHT22;7652;53.584;9.998;2023-04-03T01:36:18;2.10;99.90
15103;DHT22;7652;53.584;9.998;2023-04-03T01:39:22;2.10;99.90
15103;DHT22;7652;53.584;9.998;2023-04-03T01:42:25;2.10;99.90
15103;DHT22;7652;53.584;9.998;2023-04-03T01:45:28;2.10;99.90
15103;DHT22;7652;53.584;9.998;2023-04-03T01:48:33;2.00;99.90
15103;DHT22;7652;53.584;9.998;2023-04-03T01:51:36;2.00;99.90
15103;DHT22;7652;53.584;9.998;2023-04-03T01:54:39;2.00;99.90
15103;DHT22;7652;53.584;9.998;2023-04-03T01:57:42;2.00;99.90
15103;DHT22;7652;53.584;9.998;2023-04-03T02:00:45;2.00;99.90
15103;DHT22;7652;53.584;9.998;2023-04-03T02:03:49;2.00;99.90
15103;DHT22;7652;53.584;9.998;2023-04-03T02:06:52;2.00;99.90
15103;DHT22;7652;53.584;9.998;2023-04-03T02:09:56;2.00;99.90
15103;DHT22;7652;53.584;9.998;2023-04-03T02:12:59;2.00;99.90
15103;DHT22;7652;53.584;9.998;2023-04-03T02:16:07;2.00;99.90
15103;DHT22;7652;53.584;9.998;2023-04-03T02:19:13;2.00;99.90
15103;DHT22;7652;53.584;9.998;2023-04-03T02:22:17;2.00;99.90
15103;DHT22;7652;53.584;9.998;2023-04-03T02:25:21;2.00;99.90
15103;DHT22;7652;53.584;9.998;2023-04-03T02:28:24;1.90;99.90
15103;DHT22;7652;53.584;9.998;2023-04-03T02:31:26;1.90;99.90
15103;DHT22;7652;53.584;9.998;2023-04-03T02:34:31;1.90;99.90
15103;DHT22;7652;53.584;9.998;2023-04-03T02:37:34;1.90;99.90
15103;DHT22;7652;53.584;9.998;2023-04-03T02:40:37;1.90;99.90
15103;DHT22;7652;53.584;9.998;2023-04-03T02:43:40;1.80;99.90
15103;DHT22;7652;53.584;9.998;2023-04-03T02:46:43;1.80;99.90
15103;DHT22;7652;53.584;9.998;2023-04-03T02:49:48;1.80;99.90
15103;DHT22;7652;53.584;9.998;2023-04-03T02:52:51;1.80;99.90
15103;DHT22;7652;53.584;9.998;2023-04-03T02:55:54;1.90;99.90
15103;DHT22;7652;53.584;9.998;2023-04-03T02:58:57;1.90;99.90
15103;DHT22;7652;53.584;9.998;2023-04-03T03:02:00;1.90;99.90
15103;DHT22;7652;53.584;9.998;2023-04-03T03:05:04;1.90;99.90
15103;DHT22;7652;53.584;9.998;2023-04-03T03:08:08;1.80;99.90
15103;DHT22;7652;53.584;9.998;2023-04-03T03:11:11;1.80;99.90
15103;DHT22;7652;53.584;9.998;2023-04-03T03:14:14;1.80;99.90
15103;DHT22;7652;53.584;9.998;2023-04-03T03:17:17;1.70;99.90
15103;DHT22;7652;53.584;9.998;2023-04-03T03:20:21;1.70;99.90
15103;DHT22;7652;53.584;9.998;2023-04-03T03:23:26;1.80;99.90
15103;DHT22;7652;53.584;9.998;2023-04-03T03:26:29;1.80;99.90
15103;DHT22;7652;53.584;9.998;2023-04-03T03:29:33;1.70;99.90
15103;DHT22;7652;53.584;9.998;2023-04-03T03:32:36;1.80;99.90
15103;DHT22;7652;53.584;9.998;2023-04-03T03:35:40;1.80;99.90
15103;DHT22;7652;53.584;9.998;2023-04-03T03:38:43;1.80;99.90
15103;DHT22;7652;53.584;9.998;2023-04-03T03:41:46;1.70;99.90
15103;DHT22;7652;53.584;9.998;2023-04-03T03:44:51;1.60;99.90
15103;DHT22;7652;53.584;9.998;2023-04-03T03:47:54;1.60;99.90
15103;DHT22;7652;53.584;9.998;2023-04-03T03:50:58;1.60;99.90
15103;DHT22;7652;53.584;9.998;2023-04-03T03:54:01;1.60;99.90
15103;DHT22;7652;53.584;9.998;2023-04-03T03:57:04;1.60;99.90
15103;DHT22;7652;53.584;9.998;2023-04-03T04:00:08;1.60;99.90
15103;DHT22;7652;53.584;9.998;2023-04-03T04:03:12;1.60;99.90
15103;DHT22;7652;53.584;9.998;2023-04-03T04:06:16;1.60;99.90
15103;DHT22;7652;53.584;9.998;2023-04-03T04:09:19;1.60;99.90
15103;DHT22;7652;53.584;9.998;2023-04-03T04:12:23;1.50;99.90
15103;DHT22;7652;53.584;9.998;2023-04-03T04:15:26;1.50;99.90
15103;DHT22;7652;53.584;9.998;2023-04-03T04:18:29;1.40;99.90
15103;DHT22;7652;53.584;9.998;2023-04-03T04:21:33;1.50;99.90
15103;DHT22;7652;53.584;9.998;2023-04-03T04:24:37;1.50;99.90
15103;DHT22;7652;53.584;9.998;2023-04-03T04:27:40;1.30;99.90
15103;DHT22;7652;53.584;9.998;2023-04-03T04:30:44;1.20;99.90
15103;DHT22;7652;53.584;9.998;2023-04-03T04:33:47;1.20;99.90
15103;DHT22;7652;53.584;9.998;2023-04-03T04:36:52;1.20;99.90
15103;DHT22;7652;53.584;9.998;2023-04-03T04:39:55;1.20;99.90
15103;DHT22;7652;53.584;9.998;2023-04-03T04:42:58;1.30;99.90
15103;DHT22;7652;53.584;9.998;2023-04-03T04:46:03;1.20;99.90
15103;DHT22;7652;53.584;9.998;2023-04-03T04:49:06;1.20;99.90
15103;DHT22;7652;53.584;9.998;2023-04-03T04:52:10;1.10;99.90
15103;DHT22;7652;53.584;9.998;2023-04-03T04:55:13;1.10;99.90
15103;DHT22;7652;53.584;9.998;2023-04-03T04:58:16;1.10;99.90
15103;DHT22;7652;53.584;9.998;2023-04-03T05:01:19;1.20;99.90
15103;DHT22;7652;53.584;9.998;2023-04-03T05:04:23;1.10;99.90
15103;DHT22;7652;53.584;9.998;2023-04-03T05:07:27;1.20;99.90
15103;DHT22;7652;53.584;9.998;2023-04-03T05:10:30;1.20;99.90
15103;DHT22;7652;53.584;9.998;2023-04-03T05:13:33;1.20;99.90
15103;DHT22;7652;53.584;9.998;2023-04-03T05:16:36;1.20;99.90
15103;DHT22;7652;53.584;9.998;2023-04-03T05:19:39;1.30;99.90
15103;DHT22;7652;53.584;9.998;2023-04-03T05:22:44;1.30;99.90
15103;DHT22;7652;53.584;9.998;2023-04-03T05:25:47;1.40;99.90
15103;DHT22;7652;53.584;9.998;2023-04-03T05:28:50;1.40;99.90
15103;DHT22;7652;53.584;9.998;2023-04-03T05:31:53;1.50;99.90
15103;DHT22;7652;53.584;9.998;2023-04-03T05:34:57;1.50;99.90
15103;DHT22;7652;53.584;9.998;2023-04-03T05:38:03;1.60;99.90
15103;DHT22;7652;53.584;9.998;2023-04-03T05:41:06;1.70;99.90
15103;DHT22;7652;53.584;9.998;2023-04-03T05:44:09;1.70;99.90
15103;DHT22;7652;53.584;9.998;2023-04-03T05:47:12;1.80;99.90
15103;DHT22;7652;53.584;9.998;2023-04-03T05:50:15;1.80;99.90
15103;DHT22;7652;53.584;9.998;2023-04-03T05:53:22;1.90;99.90
15103;DHT22;7652;53.584;9.998;2023-04-03T05:56:27;2.00;99.90
15103;DHT22;7652;53.584;9.998;2023-04-03T05:59:30;2.00;99.90
15103;DHT22;7652;53.584;9.998;2023-04-03T06:02:33;2.10;99.90
15103;DHT22;7652;53.584;9.998;2023-04-03T06:05:37;2.20;99.90
15103;DHT22;7652;53.584;9.998;2023-04-03T06:08:42;2.30;99.90
15103;DHT22;7652;53.584;9.998;2023-04-03T06:11:46;2.50;99.90
15103;DHT22;7652;53.584;9.998;2023-04-03T06:14:49;2.60;99.90
15103;DHT22;7652;53.584;9.998;2023-04-03T06:17:52;2.70;99.90
15103;DHT22;7652;53.584;9.998;2023-04-03T06:20:55;2.90;99.90
15103;DHT22;7652;53.584;9.998;2023-04-03T06:24:01;3.20;99.90
15103;DHT22;7652;53.584;9.998;2023-04-03T06:27:04;3.50;99.90
15103;DHT22;7652;53.584;9.998;2023-04-03T06:30:07;4.00;99.90
15103;DHT22;7652;53.584;9.998;2023-04-03T06:33:10;4.50;99.90
15103;DHT22;7652;53.584;9.998;2023-04-03T06:36:14;4.90;99.90
15103;DHT22;7652;53.584;9.998;2023-04-03T06:39:22;5.10;99.90
15103;DHT22;7652;53.584;9.998;2023-04-03T06:42:26;5.20;99.90
15103;DHT22;7652;53.584;9.998;2023-04-03T06:45:29;5.40;99.90
15103;DHT22;7652;53.584;9.998;2023-04-03T06:48:32;6.00;99.90
15103;DHT22;7652;53.584;9.998;2023-04-03T06:51:36;6.30;99.90
15103;DHT22;7652;53.584;9.998;2023-04-03T06:54:40;6.30;99.90
15103;DHT22;7652;53.584;9.998;2023-04-03T06:57:43;6.60;99.90
15103;DHT22;7652;53.584;9.998;2023-04-03T07:00:47;6.60;99.90
15103;DHT22;7652;53.584;9.998;2023-04-03T07:03:50;6.60;99.90
15103;DHT22;7652;53.584;9.998;2023-04-03T07:06:53;7.20;99.90
15103;DHT22;7652;53.584;9.998;2023-04-03T07:09:57;7.80;99.90
15103;DHT22;7652;53.584;9.998;2023-04-03T07:13:00;8.00;99.90
15103;DHT22;7652;53.584;9.998;2023-04-03T07:16:04;7.80;99.90
15103;DHT22;7652;53.584;9.998;2023-04-03T07:19:08;7.70;99.90
15103;DHT22;7652;53.584;9.998;2023-04-03T07:22:11;7.80;99.90
15103;DHT22;7652;53.584;9.998;2023-04-03T07:25:16;8.20;99.90
15103;DHT22;7652;53.584;9.998;2023-04-03T07:28:20;8.20;99.90
15103;DHT22;7652;53.584;9.998;2023-04-03T07:31:24;8.10;99.90
15103;DHT22;7652;53.584;9.998;2023-04-03T07:34:27;8.30;99.90
15103;DHT22;7652;53.584;9.998;2023-04-03T07:37:31;8.60;99.90
15103;DHT22;7652;53.584;9.998;2023-04-03T07:40:36;8.80;99.90
15103;DHT22;7652;53.584;9.998;2023-04-03T07:43:40;8.80;99.90
15103;DHT22;7652;53.584;9.998;2023-04-03T07:46:43;9.20;99.90
15103;DHT22;7652;53.584;9.998;2023-04-03T07:49:46;9.60;99.90
15103;DHT22;7652;53.584;9.998;2023-04-03T07:52:50;9.80;99.90
15103;DHT22;7652;53.584;9.998;2023-04-03T07:55:56;10.00;99.90
15103;DHT22;7652;53.584;9.998;2023-04-03T07:58:59;10.80;99.90
15103;DHT22;7652;53.584;9.998;2023-04-03T08:02:02;11.80;99.90
15103;DHT22;7652;53.584;9.998;2023-04-03T08:05:07;11.80;99.90
15103;DHT22;7652;53.584;9.998;2023-04-03T08:08:12;11.90;99.90
15103;DHT22;7652;53.584;9.998;2023-04-03T08:11:17;12.50;99.90
15103;DHT22;7652;53.584;9.998;2023-04-03T08:14:20;12.60;99.00
15103;DHT22;7652;53.584;9.998;2023-04-03T08:17:23;13.60;98.30
15103;DHT22;7652;53.584;9.998;2023-04-03T08:20:27;14.10;95.90
15103;DHT22;7652;53.584;9.998;2023-04-03T08:23:30;13.90;94.60
15103;DHT22;7652;53.584;9.998;2023-04-03T08:26:35;15.00;94.10
15103;DHT22;7652;53.584;9.998;2023-04-03T08:29:38;15.60;91.30
15103;DHT22;7652;53.584;9.998;2023-04-03T08:32:41;15.30;88.90
15103;DHT22;7652;53.584;9.998;2023-04-03T08:35:45;15.40;89.80
15103;DHT22;7652;53.584;9.998;2023-04-03T08:38:49;15.90;88.00
15103;DHT22;7652;53.584;9.998;2023-04-03T08:41:55;16.30;84.50
15103;DHT22;7652;53.584;9.998;2023-04-03T08:45:04;16.30;84.50
15103;DHT22;7652;53.584;9.998;2023-04-03T08:48:14;16.40;80.50
15103;DHT22;7652;53.584;9.998;2023-04-03T08:51:20;16.60;77.00
15103;DHT22;7652;53.584;9.998;2023-04-03T08:54:28;16.50;76.50
15103;DHT22;7652;53.584;9.998;2023-04-03T08:57:40;15.90;76.00
15103;DHT22;7652;53.584;9.998;2023-04-03T09:00:46;15.60;78.30
15103;DHT22;7652;53.584;9.998;2023-04-03T09:03:50;14.80;80.00
15103;DHT22;7652;53.584;9.998;2023-04-03T09:06:57;14.50;81.30
15103;DHT22;7652;53.584;9.998;2023-04-03T09:10:01;14.00;84.10
15103;DHT22;7652;53.584;9.998;2023-04-03T09:13:11;13.00;81.90
15103;DHT22;7652;53.584;9.998;2023-04-03T09:16:24;12.80;86.50
15103;DHT22;7652;53.584;9.998;2023-04-03T09:19:36;12.80;87.00
15103;DHT22;7652;53.584;9.998;2023-04-03T09:22:42;12.40;85.50
15103;DHT22;7652;53.584;9.998;2023-04-03T09:25:58;12.10;85.70
15103;DHT22;7652;53.584;9.998;2023-04-03T09:29:08;12.00;84.70
15103;DHT22;7652;53.584;9.998;2023-04-03T09:32:21;11.90;85.30
15103;DHT22;7652;53.584;9.998;2023-04-03T09:35:26;12.40;80.40
15103;DHT22;7652;53.584;9.998;2023-04-03T09:38:45;13.20;83.50
15103;DHT22;7652;53.584;9.998;2023-04-03T09:42:00;13.60;77.90
15103;DHT22;7652;53.584;9.998;2023-04-03T09:45:18;13.20;77.20
15103;DHT22;7652;53.584;9.998;2023-04-03T09:48:24;13.60;77.70
15103;DHT22;7652;53.584;9.998;2023-04-03T09:51:28;14.60;77.00
15103;DHT22;7652;53.584;9.998;2023-04-03T09:54:36;15.10;73.90
15103;DHT22;7652;53.584;9.998;2023-04-03T09:57:41;15.30;72.90
15103;DHT22;7652;53.584;9.998;2023-04-03T10:00:54;15.40;68.80
15103;DHT22;7652;53.584;9.998;2023-04-03T10:04:06;15.20;68.30
15103;DHT22;7652;53.584;9.998;2023-04-03T10:07:33;15.00;67.80
15103;DHT22;7652;53.584;9.998;2023-04-03T10:10:37;15.10;66.50
15103;DHT22;7652;53.584;9.998;2023-04-03T10:13:52;15.70;67.50
15103;DHT22;7652;53.584;9.998;2023-04-03T10:17:04;15.70;62.20
15103;DHT22;7652;53.584;9.998;2023-04-03T10:20:25;16.00;58.20
15103;DHT22;7652;53.584;9.998;2023-04-03T10:23:33;15.80;59.20
15103;DHT22;7652;53.584;9.998;2023-04-03T10:26:45;16.80;58.20
15103;DHT22;7652;53.584;9.998;2023-04-03T10:29:51;16.70;56.70
15103;DHT22;7652;53.584;9.998;2023-04-03T10:33:09;16.70;57.30
15103;DHT22;7652;53.584;9.998;2023-04-03T10:36:24;17.20;56.30
15103;DHT22;7652;53.584;9.998;2023-04-03T10:39:33;17.10;54.80
15103;DHT22;7652;53.584;9.998;2023-04-03T10:42:43;17.60;54.00
15103;DHT22;7652;53.584;9.998;2023-04-03T10:45:57;18.00;53.00
15103;DHT22;7652;53.584;9.998;2023-04-03T10:49:14;18.50;51.60
15103;DHT22;7652;53.584;9.998;2023-04-03T10:52:23;19.80;50.60
15103;DHT22;7652;53.584;9.998;2023-04-03T10:55:34;19.50;51.50
15103;DHT22;7652;53.584;9.998;2023-04-03T10:58:43;19.10;50.20
15103;DHT22;7652;53.584;9.998;2023-04-03T11:01:51;19.80;50.50
15103;DHT22;7652;53.584;9.998;2023-04-03T11:05:00;19.20;50.20
15103;DHT22;7652;53.584;9.998;2023-04-03T11:08:09;19.40;52.00
15103;DHT22;7652;53.584;9.998;2023-04-03T11:11:17;19.80;51.50
15103;DHT22;7652;53.584;9.998;2023-04-03T11:14:26;20.50;51.40
15103;DHT22;7652;53.584;9.998;2023-04-03T11:17:35;20.70;49.90
15103;DHT22;7652;53.584;9.998;2023-04-03T11:20:43;22.10;48.60
15103;DHT22;7652;53.584;9.998;2023-04-03T11:23:48;21.50;47.40
15103;DHT22;7652;53.584;9.998;2023-04-03T11:26:52;20.90;48.60
15103;DHT22;7652;53.584;9.998;2023-04-03T11:29:57;18.50;50.00
15103;DHT22;7652;53.584;9.998;2023-04-03T11:33:37;16.90;54.00
15103;DHT22;7652;53.584;9.998;2023-04-03T11:36:46;16.30;55.30
15103;DHT22;7652;53.584;9.998;2023-04-03T11:39:54;15.80;57.50
15103;DHT22;7652;53.584;9.998;2023-04-03T11:43:05;16.80;56.60
15103;DHT22;7652;53.584;9.998;2023-04-03T11:46:09;18.90;54.10
15103;DHT22;7652;53.584;9.998;2023-04-03T11:49:58;18.70;52.90
15103;DHT22;7652;53.584;9.998;2023-04-03T11:53:34;17.20;54.10
15103;DHT22;7652;53.584;9.998;2023-04-03T11:56:38;15.20;57.10
15103;DHT22;7652;53.584;9.998;2023-04-03T11:59:43;15.10;58.30
15103;DHT22;7652;53.584;9.998;2023-04-03T12:02:46;15.80;57.50
15103;DHT22;7652;53.584;9.998;2023-04-03T12:05:56;17.30;54.90
15103;DHT22;7652;53.584;9.998;2023-04-03T12:09:02;18.30;53.70
15103;DHT22;7652;53.584;9.998;2023-04-03T12:12:27;19.40;50.40
15103;DHT22;7652;53.584;9.998;2023-04-03T12:15:52;20.50;48.60
15103;DHT22;7652;53.584;9.998;2023-04-03T12:19:00;20.80;46.90
15103;DHT22;7652;53.584;9.998;2023-04-03T12:22:13;21.40;46.50
15103;DHT22;7652;53.584;9.998;2023-04-03T12:25:43;22.30;46.10
15103;DHT22;7652;53.584;9.998;2023-04-03T12:28:50;21.80;45.40
15103;DHT22;7652;53.584;9.998;2023-04-03T12:32:06;22.40;44.70
15103;DHT22;7652;53.584;9.998;2023-04-03T12:35:21;22.10;44.70
15103;DHT22;7652;53.584;9.998;2023-04-03T12:38:41;21.90;43.60
15103;DHT22;7652;53.584;9.998;2023-04-03T12:41:55;20.50;45.30
15103;DHT22;7652;53.584;9.998;2023-04-03T12:45:02;20.50;46.20
15103;DHT22;7652;53.584;9.998;2023-04-03T12:48:15;20.00;46.40
15103;DHT22;7652;53.584;9.998;2023-04-03T12:51:20;18.80;47.30
15103;DHT22;7652;53.584;9.998;2023-04-03T12:54:29;17.10;49.10
15103;DHT22;7652;53.584;9.998;2023-04-03T12:57:35;17.20;49.30
15103;DHT22;7652;53.584;9.998;2023-04-03T13:00:38;16.70;49.20
15103;DHT22;7652;53.584;9.998;2023-04-03T13:03:44;17.30;49.90
15103;DHT22;7652;53.584;9.998;2023-04-03T13:06:48;18.40;50.00
15103;DHT22;7652;53.584;9.998;2023-04-03T13:10:14;18.90;48.70
15103;DHT22;7652;53.584;9.998;2023-04-03T13:13:19;19.20;48.20
15103;DHT22;7652;53.584;9.998;2023-04-03T13:16:25;20.10;47.20
15103;DHT22;7652;53.584;9.998;2023-04-03T13:19:28;20.40;45.50
15103;DHT22;7652;53.584;9.998;2023-04-03T13:22:33;20.30;45.30
15103;DHT22;7652;53.584;9.998;2023-04-03T13:25:42;19.70;47.00
15103;DHT22;7652;53.584;9.998;2023-04-03T13:28:48;19.00;47.60
15103;DHT22;7652;53.584;9.998;2023-04-03T13:31:55;17.00;49.10
15103;DHT22;7652;53.584;9.998;2023-04-03T13:34:59;15.60;51.00
15103;DHT22;7652;53.584;9.998;2023-04-03T13:38:25;14.50;52.80
15103;DHT22;7652;53.584;9.998;2023-04-03T13:41:30;14.20;55.30
15103;DHT22;7652;53.584;9.998;2023-04-03T13:44:36;14.30;55.30
15103;DHT22;7652;53.584;9.998;2023-04-03T13:47:43;13.70;53.90
15103;DHT22;7652;53.584;9.998;2023-04-03T13:50:56;13.40;56.00
15103;DHT22;7652;53.584;9.998;2023-04-03T13:54:01;13.20;57.30
15103;DHT22;7652;53.584;9.998;2023-04-03T13:57:16;13.20;57.60
15103;DHT22;7652;53.584;9.998;2023-04-03T14:00:33;13.00;57.10
15103;DHT22;7652;53.584;9.998;2023-04-03T14:03:42;13.00;56.10
15103;DHT22;7652;53.584;9.998;2023-04-03T14:06:46;12.80;55.50
15103;DHT22;7652;53.584;9.998;2023-04-03T14:09:49;12.60;56.70
15103;DHT22;7652;53.584;9.998;2023-04-03T14:12:52;12.40;58.20
15103;DHT22;7652;53.584;9.998;2023-04-03T14:15:57;12.30;58.10
15103;DHT22;7652;53.584;9.998;2023-04-03T14:19:19;12.30;58.00
15103;DHT22;7652;53.584;9.998;2023-04-03T14:22:25;11.80;58.50
15103;DHT22;7652;53.584;9.998;2023-04-03T14:25:28;11.90;58.60
15103;DHT22;7652;53.584;9.998;2023-04-03T14:28:31;11.70;59.30
15103;DHT22;7652;53.584;9.998;2023-04-03T14:31:36;11.60;57.90
15103;DHT22;7652;53.584;9.998;2023-04-03T14:34:40;11.50;59.00
15103;DHT22;7652;53.584;9.998;2023-04-03T14:37:43;11.60;60.40
15103;DHT22;7652;53.584;9.998;2023-04-03T14:40:46;11.40;60.70
15103;DHT22;7652;53.584;9.998;2023-04-03T14:43:50;11.40;61.70
15103;DHT22;7652;53.584;9.998;2023-04-03T14:46:54;11.20;63.50
15103;DHT22;7652;53.584;9.998;2023-04-03T14:49:59;10.90;62.40
15103;DHT22;7652;53.584;9.998;2023-04-03T14:53:02;10.80;63.60
15103;DHT22;7652;53.584;9.998;2023-04-03T14:56:11;10.80;64.80
15103;DHT22;7652;53.584;9.998;2023-04-03T14:59:14;10.90;63.60
15103;DHT22;7652;53.584;9.998;2023-04-03T15:02:28;10.90;63.40
15103;DHT22;7652;53.584;9.998;2023-04-03T15:05:32;10.80;63.30
15103;DHT22;7652;53.584;9.998;2023-04-03T15:08:35;10.70;64.50
15103;DHT22;7652;53.584;9.998;2023-04-03T15:11:38;10.80;66.20
15103;DHT22;7652;53.584;9.998;2023-04-03T15:14:41;10.60;67.10
15103;DHT22;7652;53.584;9.998;2023-04-03T15:17:56;10.60;66.10
15103;DHT22;7652;53.584;9.998;2023-04-03T15:21:00;10.60;67.10
15103;DHT22;7652;53.584;9.998;2023-04-03T15:24:03;10.60;66.90
15103;DHT22;7652;53.584;9.998;2023-04-03T15:27:06;10.40;69.20
15103;DHT22;7652;53.584;9.998;2023-04-03T15:30:14;10.50;69.80
15103;DHT22;7652;53.584;9.998;2023-04-03T15:33:19;10.60;71.00
15103;DHT22;7652;53.584;9.998;2023-04-03T15:36:22;10.70;70.40
15103;DHT22;7652;53.584;9.998;2023-04-03T15:39:35;10.80;71.00
15103;DHT22;7652;53.584;9.998;2023-04-03T15:42:38;10.70;71.90
15103;DHT22;7652;53.584;9.998;2023-04-03T15:45:42;10.40;72.90
15103;DHT22;7652;53.584;9.998;2023-04-03T15:48:46;10.20;72.80
15103;DHT22;7652;53.584;9.998;2023-04-03T15:51:51;10.20;72.90
15103;DHT22;7652;53.584;9.998;2023-04-03T15:54:54;10.10;72.20
15103;DHT22;7652;53.584;9.998;2023-04-03T15:57:57;10.00;73.00
15103;DHT22;7652;53.584;9.998;2023-04-03T16:01:01;9.90;73.70
15103;DHT22;7652;53.584;9.998;2023-04-03T16:04:07;9.60;73.70
15103;DHT22;7652;53.584;9.998;2023-04-03T16:07:11;9.70;76.30
15103;DHT22;7652;53.584;9.998;2023-04-03T16:10:16;9.80;75.50
15103;DHT22;7652;53.584;9.998;2023-04-03T16:13:19;9.70;75.50
15103;DHT22;7652;53.584;9.998;2023-04-03T16:16:23;9.60;76.90
15103;DHT22;7652;53.584;9.998;2023-04-03T16:19:29;9.50;77.60
15103;DHT22;7652;53.584;9.998;2023-04-03T16:22:33;9.50;79.20
15103;DHT22;7652;53.584;9.998;2023-04-03T16:25:36;9.40;80.10
15103;DHT22;7652;53.584;9.998;2023-04-03T16:28:39;9.30;79.90
15103;DHT22;7652;53.584;9.998;2023-04-03T16:31:42;9.10;80.50
15103;DHT22;7652;53.584;9.998;2023-04-03T16:34:47;9.00;81.70
15103;DHT22;7652;53.584;9.998;2023-04-03T16:37:50;8.80;82.70
15103;DHT22;7652;53.584;9.998;2023-04-03T16:40:53;8.80;83.10
15103;DHT22;7652;53.584;9.998;2023-04-03T16:43:58;8.90;84.20
15103;DHT22;7652;53.584;9.998;2023-04-03T16:47:01;8.80;86.00
15103;DHT22;7652;53.584;9.998;2023-04-03T16:50:07;8.70;86.30
15103;DHT22;7652;53.584;9.998;2023-04-03T16:53:10;8.80;86.30
15103;DHT22;7652;53.584;9.998;2023-04-03T16:56:13;8.80;87.20
15103;DHT22;7652;53.584;9.998;2023-04-03T16:59:17;8.70;87.00
15103;DHT22;7652;53.584;9.998;2023-04-03T17:02:21;8.60;87.80
15103;DHT22;7652;53.584;9.998;2023-04-03T17:05:27;8.50;89.10
15103;DHT22;7652;53.584;9.998;2023-04-03T17:08:30;8.40;90.00
15103;DHT22;7652;53.584;9.998;2023-04-03T17:11:34;8.20;90.70
15103;DHT22;7652;53.584;9.998;2023-04-03T17:14:37;8.10;91.70
15103;DHT22;7652;53.584;9.998;2023-04-03T17:17:40;8.10;92.10
15103;DHT22;7652;53.584;9.998;2023-04-03T17:20:45;8.00;92.50
15103;DHT22;7652;53.584;9.998;2023-04-03T17:23:51;7.90;93.20
15103;DHT22;7652;53.584;9.998;2023-04-03T17:26:55;7.90;93.30
15103;DHT22;7652;53.584;9.998;2023-04-03T17:29:58;7.80;93.70
15103;DHT22;7652;53.584;9.998;2023-04-03T17:33:01;7.70;93.80
15103;DHT22;7652;53.584;9.998;2023-04-03T17:36:06;7.60;94.00
15103;DHT22;7652;53.584;9.998;2023-04-03T17:39:09;7.60;94.40
15103;DHT22;7652;53.584;9.998;2023-04-03T17:42:13;7.50;95.40
15103;DHT22;7652;53.584;9.998;2023-04-03T17:45:16;7.50;95.30
15103;DHT22;7652;53.584;9.998;2023-04-03T17:48:19;7.40;95.60
15103;DHT22;7652;53.584;9.998;2023-04-03T17:51:25;7.40;95.10
15103;DHT22;7652;53.584;9.998;2023-04-03T17:54:28;7.30;94.30
15103;DHT22;7652;53.584;9.998;2023-04-03T17:57:31;7.20;94.30
15103;DHT22;7652;53.584;9.998;2023-04-03T18:00:35;7.20;94.60
15103;DHT22;7652;53.584;9.998;2023-04-03T18:03:39;7.00;94.80
15103;DHT22;7652;53.584;9.998;2023-04-03T18:06:46;7.00;95.20
15103;DHT22;7652;53.584;9.998;2023-04-03T18:09:51;6.90;95.40
15103;DHT22;7652;53.584;9.998;2023-04-03T18:12:55;6.80;95.80
15103;DHT22;7652;53.584;9.998;2023-04-03T18:15:58;6.80;95.40
15103;DHT22;7652;53.584;9.998;2023-04-03T18:19:01;6.70;95.80
15103;DHT22;7652;53.584;9.998;2023-04-03T18:22:24;6.60;96.80
15103;DHT22;7652;53.584;9.998;2023-04-03T18:25:28;6.50;96.70
15103;DHT22;7652;53.584;9.998;2023-04-03T18:28:37;6.50;98.00
15103;DHT22;7652;53.584;9.998;2023-04-03T18:31:44;6.40;97.80
15103;DHT22;7652;53.584;9.998;2023-04-03T18:34:48;6.40;98.00
15103;DHT22;7652;53.584;9.998;2023-04-03T18:37:52;6.30;98.30
15103;DHT22;7652;53.584;9.998;2023-04-03T18:40:55;6.20;99.00
15103;DHT22;7652;53.584;9.998;2023-04-03T18:44:00;6.20;99.70
15103;DHT22;7652;53.584;9.998;2023-04-03T18:47:04;6.10;99.90
15103;DHT22;7652;53.584;9.998;2023-04-03T18:50:07;6.10;99.90
15103;DHT22;7652;53.584;9.998;2023-04-03T18:53:12;5.90;99.90
15103;DHT22;7652;53.584;9.998;2023-04-03T18:56:15;5.90;99.90
15103;DHT22;7652;53.584;9.998;2023-04-03T18:59:18;5.80;99.90
15103;DHT22;7652;53.584;9.998;2023-04-03T19:02:22;5.70;99.90
15103;DHT22;7652;53.584;9.998;2023-04-03T19:05:26;5.70;99.90
15103;DHT22;7652;53.584;9.998;2023-04-03T19:08:31;5.60;99.90
15103;DHT22;7652;53.584;9.998;2023-04-03T19:11:34;5.60;99.90
15103;DHT22;7652;53.584;9.998;2023-04-03T19:14:38;5.50;99.90
15103;DHT22;7652;53.584;9.998;2023-04-03T19:17:41;5.50;99.90
15103;DHT22;7652;53.584;9.998;2023-04-03T19:20:44;5.40;99.90
15103;DHT22;7652;53.584;9.998;2023-04-03T19:23:48;5.40;99.90
15103;DHT22;7652;53.584;9.998;2023-04-03T19:26:51;5.30;99.90
15103;DHT22;7652;53.584;9.998;2023-04-03T19:29:54;5.30;99.90
15103;DHT22;7652;53.584;9.998;2023-04-03T19:32:57;5.30;99.90
15103;DHT22;7652;53.584;9.998;2023-04-03T19:36:03;5.20;99.90
15103;DHT22;7652;53.584;9.998;2023-04-03T19:39:08;5.20;99.90
15103;DHT22;7652;53.584;9.998;2023-04-03T19:42:11;5.00;99.90
15103;DHT22;7652;53.584;9.998;2023-04-03T19:45:14;5.00;99.90
15103;DHT22;7652;53.584;9.998;2023-04-03T19:48:18;5.00;99.90
15103;DHT22;7652;53.584;9.998;2023-04-03T19:51:22;5.00;99.90
15103;DHT22;7652;53.584;9.998;2023-04-03T19:54:26;4.90;99.90
15103;DHT22;7652;53.584;9.998;2023-04-03T19:57:29;4.80;99.90
15103;DHT22;7652;53.584;9.998;2023-04-03T20:00:32;4.80;99.90
15103;DHT22;7652;53.584;9.998;2023-04-03T20:03:35;4.80;99.90